createdAt,value
2019-03-15T00:02:26.789Z,100040.19
2019-03-15T00:04:56.298Z,100039.02
2019-03-15T00:07:25.779Z,100046.79
2019-03-15T00:09:55.265Z,100043.03
2019-03-15T00:12:24.795Z,100055.45
2019-03-15T00:14:54.277Z,100059.89
2019-03-15T00:17:23.807Z,100049.61
2019-03-15T00:19:53.306Z,100055.86
2019-03-15T00:22:22.816Z,100052.53
2019-03-15T00:24:52.312Z,100058.45
2019-03-15T00:27:41.153Z,100059.53
2019-03-15T00:30:12.196Z,100058.92
2019-03-15T00:32:41.666Z,100057.31
2019-03-15T00:35:11.165Z,100055.27
2019-03-15T00:37:40.648Z,100052.89
2019-03-15T00:40:13.755Z,100047.46
2019-03-15T00:42:43.405Z,100051.02
2019-03-15T00:45:12.980Z,100051.06
2019-03-15T00:47:42.459Z,100051.96
2019-03-15T00:50:12.828Z,100058.81
2019-03-15T00:52:42.458Z,100055.31
2019-03-15T00:55:12.550Z,100057.91
2019-03-15T00:57:42.062Z,100059.97
2019-03-15T01:00:16.757Z,100060.87
2019-03-15T01:02:46.266Z,100053.44
2019-03-15T01:05:16.399Z,100056.52
2019-03-15T01:07:45.972Z,100057.30
2019-03-15T01:10:15.577Z,100061.56
2019-03-15T01:12:45.026Z,100049.05
2019-03-15T01:15:15.059Z,100045.50
2019-03-15T01:17:44.646Z,100044.59
2019-03-15T01:20:14.202Z,100056.62
2019-03-15T01:22:43.778Z,100050.39
2019-03-15T01:25:13.332Z,100049.48
2019-03-15T01:27:42.809Z,100041.38
2019-03-15T01:30:13.249Z,100038.50
2019-03-15T01:32:42.752Z,100040.44
2019-03-15T01:35:12.335Z,100043.63
2019-03-15T01:37:41.813Z,100043.63
2019-03-15T01:40:11.461Z,100041.95
2019-03-15T01:42:40.936Z,100045.22
2019-03-15T01:45:10.565Z,100043.02
2019-03-15T01:47:40.084Z,100040.42
2019-03-15T01:50:10.003Z,100038.22
2019-03-15T01:52:39.510Z,100031.72
2019-03-15T01:55:09.180Z,100036.20
2019-03-15T01:57:38.676Z,100044.97
2019-03-15T02:00:10.827Z,100043.67
2019-03-15T02:02:40.540Z,100026.82
2019-03-15T02:05:10.029Z,100027.73
2019-03-15T02:07:39.560Z,100025.53
2019-03-15T02:10:09.735Z,100021.59
2019-03-15T02:12:39.276Z,100026.50
2019-03-15T02:15:11.751Z,100020.30
2019-03-15T02:17:41.302Z,100022.03
2019-03-15T02:20:10.964Z,100024.39
2019-03-15T02:22:40.467Z,100020.95
2019-03-15T02:25:10.007Z,100033.13
2019-03-15T02:27:39.509Z,100036.95
2019-03-15T02:30:11.462Z,100042.02
2019-03-15T02:32:40.943Z,100035.13
2019-03-15T02:35:10.515Z,100024.02
2019-03-15T02:37:40.023Z,100017.02
2019-03-15T02:40:09.638Z,100023.75
2019-03-15T02:42:39.132Z,100022.90
2019-03-15T02:45:08.843Z,100018.97
2019-03-15T02:47:38.391Z,100016.33
2019-03-15T02:50:08.945Z,100019.67
2019-03-15T02:52:38.421Z,100022.94
2019-03-15T02:55:08.997Z,100019.55
2019-03-15T02:57:38.529Z,100015.70
2019-03-15T03:00:09.731Z,100018.69
2019-03-15T03:02:39.210Z,100016.52
2019-03-15T03:05:10.722Z,100018.30
2019-03-15T03:07:40.297Z,100013.22
2019-03-15T03:10:10.290Z,100019.25
2019-03-15T03:12:39.889Z,100019.39
2019-03-15T03:15:10.190Z,100018.14
2019-03-15T03:17:40.349Z,100024.61
2019-03-15T03:20:10.481Z,100034.15
2019-03-15T03:22:40.112Z,100022.84
2019-03-15T03:25:09.745Z,100020.16
2019-03-15T03:27:39.242Z,100019.89
2019-03-15T03:30:13.215Z,100029.09
2019-03-15T03:32:44.611Z,100025.78
2019-03-15T03:35:14.440Z,100018.70
2019-03-15T03:37:45.166Z,100012.23
2019-03-15T03:40:15.018Z,100004.35
2019-03-15T03:42:44.720Z,100003.59
2019-03-15T03:45:14.279Z,99991.77
2019-03-15T03:47:43.763Z,99990.52
2019-03-15T03:50:13.902Z,99983.63
2019-03-15T03:52:43.385Z,99982.09
2019-03-15T03:55:12.854Z,99977.55
2019-03-15T03:57:42.469Z,99989.88
2019-03-15T04:00:18.243Z,99987.54
2019-03-15T04:02:47.931Z,99992.19
2019-03-15T04:05:17.440Z,99987.77
2019-03-15T04:07:47.060Z,99974.27
2019-03-15T04:10:16.559Z,99974.38
2019-03-15T04:12:46.059Z,99961.88
2019-03-15T04:15:15.847Z,99957.52
2019-03-15T04:17:45.326Z,99962.78
2019-03-15T04:20:14.935Z,99968.05
2019-03-15T04:22:44.407Z,99963.17
2019-03-15T04:25:13.916Z,99962.98
2019-03-15T04:27:43.399Z,99969.72
2019-03-15T04:30:14.657Z,99961.59
2019-03-15T04:32:44.150Z,99964.27
2019-03-15T04:35:13.631Z,99974.04
2019-03-15T04:37:43.176Z,99965.75
2019-03-15T04:40:13.150Z,99962.88
2019-03-15T04:42:42.626Z,99969.11
2019-03-15T04:45:12.270Z,99974.67
2019-03-15T04:47:43.604Z,99971.36
2019-03-15T04:50:13.050Z,99967.16
2019-03-15T04:52:42.534Z,99968.20
2019-03-15T04:55:12.104Z,99973.41
2019-03-15T04:57:41.612Z,99962.53
2019-03-15T05:00:13.975Z,99965.59
2019-03-15T05:02:43.495Z,99964.20
2019-03-15T05:05:12.965Z,99956.39
2019-03-15T05:07:42.481Z,99960.97
2019-03-15T05:10:12.023Z,99956.23
2019-03-15T05:12:41.515Z,99956.19
2019-03-15T05:15:11.449Z,99955.22
2019-03-15T05:17:40.937Z,99951.77
2019-03-15T05:20:10.979Z,99944.50
2019-03-15T05:22:40.593Z,99947.36
2019-03-15T05:25:10.210Z,99945.96
2019-03-15T05:27:39.709Z,99944.76
2019-03-15T05:30:11.788Z,99941.59
2019-03-15T05:32:41.284Z,99940.69
2019-03-15T05:35:10.938Z,99934.70
2019-03-15T05:37:40.436Z,99939.92
2019-03-15T05:40:09.989Z,99933.45
2019-03-15T05:42:39.575Z,99926.14
2019-03-15T05:45:11.466Z,99924.14
2019-03-15T05:47:40.953Z,99926.02
2019-03-15T05:50:13.260Z,99916.11
2019-03-15T05:52:42.828Z,99910.84
2019-03-15T05:55:14.661Z,99908.30
2019-03-15T05:57:44.147Z,99909.55
2019-03-15T06:00:16.070Z,99906.24
2019-03-15T06:02:45.642Z,99909.31
2019-03-15T06:05:15.201Z,99910.17
2019-03-15T06:07:44.678Z,99909.64
2019-03-15T06:10:14.803Z,99909.78
2019-03-15T06:12:44.304Z,99906.25
2019-03-15T06:15:13.922Z,99900.02
2019-03-15T06:17:43.410Z,99899.49
2019-03-15T06:20:13.919Z,99893.67
2019-03-15T06:22:43.487Z,99890.95
2019-03-15T06:25:13.411Z,99884.58
2019-03-15T06:27:42.901Z,99872.48
2019-03-15T06:30:16.139Z,99871.85
2019-03-15T06:32:45.635Z,99867.86
2019-03-15T06:35:15.273Z,99871.58
2019-03-15T06:37:44.766Z,99870.58
2019-03-15T06:40:14.418Z,99870.70
2019-03-15T06:42:43.908Z,99861.83
2019-03-15T06:45:14.995Z,99864.76
2019-03-15T06:47:44.560Z,99860.88
2019-03-15T06:50:14.112Z,99856.05
2019-03-15T06:52:43.649Z,99847.13
2019-03-15T06:55:13.231Z,99847.05
2019-03-15T06:57:42.706Z,99837.56
2019-03-15T07:00:16.393Z,99839.37
2019-03-15T07:02:46.194Z,99841.64
2019-03-15T07:05:16.046Z,99833.80
2019-03-15T07:07:45.648Z,99842.73
2019-03-15T07:10:15.443Z,99834.16
2019-03-15T07:12:44.920Z,99833.69
2019-03-15T07:15:15.106Z,99831.89
2019-03-15T07:17:44.630Z,99826.40
2019-03-15T07:20:16.725Z,99810.53
2019-03-15T07:22:46.286Z,99812.36
2019-03-15T07:25:15.915Z,99819.30
2019-03-15T07:27:45.432Z,99811.53
2019-03-15T07:30:16.508Z,99799.89
2019-03-15T07:32:45.998Z,99785.99
2019-03-15T07:35:15.499Z,99795.87
2019-03-15T07:37:45.689Z,99791.66
2019-03-15T07:40:15.619Z,99789.94
2019-03-15T07:42:45.098Z,99785.77
2019-03-15T07:45:15.352Z,99782.80
2019-03-15T07:47:44.826Z,99786.31
2019-03-15T07:50:16.244Z,99777.29
2019-03-15T07:52:45.817Z,99772.52
2019-03-15T07:55:15.407Z,99769.01
2019-03-15T07:57:44.882Z,99767.55
2019-03-15T08:00:16.587Z,99761.22
2019-03-15T08:02:46.074Z,99761.16
2019-03-15T08:05:15.711Z,99752.80
2019-03-15T08:07:45.958Z,99752.37
2019-03-15T08:10:15.619Z,99755.05
2019-03-15T08:12:45.209Z,99762.45
2019-03-15T08:15:15.312Z,99751.64
2019-03-15T08:17:45.185Z,99748.65
2019-03-15T08:20:15.709Z,99759.02
2019-03-15T08:22:45.223Z,99750.37
2019-03-15T08:25:14.816Z,99751.27
2019-03-15T08:27:44.298Z,99744.48
2019-03-15T08:30:18.275Z,99742.70
2019-03-15T08:32:47.836Z,99752.25
2019-03-15T08:35:17.374Z,99750.60
2019-03-15T08:37:46.851Z,99750.57
2019-03-15T08:40:16.716Z,99737.70
2019-03-15T08:42:46.224Z,99743.80
2019-03-15T08:45:20.993Z,99748.98
2019-03-15T08:47:50.473Z,99743.82
2019-03-15T08:50:24.275Z,99752.06
2019-03-15T08:52:54.092Z,99741.25
2019-03-15T08:55:23.615Z,99747.70
2019-03-15T08:57:53.092Z,99741.66
2019-03-15T09:00:22.699Z,99739.61
2019-03-15T09:02:52.205Z,99746.56
2019-03-15T09:05:21.749Z,99753.14
2019-03-15T09:07:51.328Z,99748.86
2019-03-15T09:10:23.508Z,99745.89
2019-03-15T09:12:52.668Z,99744.59
2019-03-15T09:15:22.217Z,99745.14
2019-03-15T09:17:51.708Z,99752.95
2019-03-15T09:20:21.293Z,99753.44
2019-03-15T09:22:50.844Z,99756.87
2019-03-15T09:25:21.218Z,99746.92
2019-03-15T09:27:50.797Z,99750.79
2019-03-15T09:30:24.002Z,99747.73
2019-03-15T09:32:52.470Z,99748.57
2019-03-15T09:35:21.971Z,99743.81
2019-03-15T09:37:51.460Z,99752.89
2019-03-15T09:40:20.990Z,99754.59
2019-03-15T09:42:50.515Z,99758.48
2019-03-15T09:45:20.442Z,99752.84
2019-03-15T09:47:50.046Z,99749.38
2019-03-15T09:50:33.920Z,99756.29
2019-03-15T09:52:50.827Z,99746.72
2019-03-15T09:55:32.267Z,99745.83
2019-03-15T09:57:51.651Z,99747.06
2019-03-15T10:00:21.735Z,99748.83
2019-03-15T10:02:51.397Z,99744.88
2019-03-15T10:05:20.988Z,99751.38
2019-03-15T10:07:50.545Z,99751.78
2019-03-15T10:10:20.395Z,99750.86
2019-03-15T10:12:49.943Z,99756.06
2019-03-15T10:15:19.707Z,99756.06
2019-03-15T10:17:49.274Z,99757.65
2019-03-15T10:20:18.846Z,99751.16
2019-03-15T10:23:04.864Z,99765.75
2019-03-15T10:25:19.566Z,99752.77
2019-03-15T10:27:49.066Z,99752.69
2019-03-15T10:30:20.970Z,99752.91
2019-03-15T10:32:50.585Z,99760.58
2019-03-15T10:35:20.092Z,99768.87
2019-03-15T10:37:49.649Z,99774.86
2019-03-15T10:40:24.014Z,99769.36
2019-03-15T10:42:55.470Z,99769.72
2019-03-15T10:45:24.817Z,99774.00
2019-03-15T10:47:54.309Z,99775.66
2019-03-15T10:50:23.811Z,99783.61
2019-03-15T10:52:53.972Z,99784.48
2019-03-15T10:55:24.005Z,99788.30
2019-03-15T10:57:53.505Z,99785.16
2019-03-15T11:00:23.081Z,99788.28
2019-03-15T11:02:52.590Z,99788.73
2019-03-15T11:05:22.144Z,99795.57
2019-03-15T11:07:51.687Z,99818.13
2019-03-15T11:10:21.242Z,99807.88
2019-03-15T11:12:51.023Z,99807.06
2019-03-15T11:15:20.596Z,99805.27
2019-03-15T11:17:50.173Z,99820.03
2019-03-15T11:20:19.661Z,99828.71
2019-03-15T11:22:49.184Z,99819.55
2019-03-15T11:25:18.697Z,99821.68
2019-03-15T11:27:48.211Z,99817.78
2019-03-15T11:30:17.701Z,99828.66
2019-03-15T11:32:47.227Z,99831.19
2019-03-15T11:35:16.831Z,99832.29
2019-03-15T11:37:46.369Z,99832.34
2019-03-15T11:40:19.038Z,99834.27
2019-03-15T11:42:48.668Z,99828.09
2019-03-15T11:45:18.288Z,99849.39
2019-03-15T11:48:02.869Z,99848.08
2019-03-15T11:50:21.792Z,99830.00
2019-03-15T11:52:51.533Z,99838.67
2019-03-15T11:55:21.022Z,99829.73
2019-03-15T11:57:50.532Z,99843.06
2019-03-15T12:00:20.647Z,99847.69
2019-03-15T12:02:50.140Z,99838.27
2019-03-15T12:05:19.689Z,99841.59
2019-03-15T12:07:49.197Z,99843.56
2019-03-15T12:10:18.934Z,99847.06
2019-03-15T12:12:48.434Z,99843.63
2019-03-15T12:15:22.080Z,99840.98
2019-03-15T12:17:51.654Z,99841.30
2019-03-15T12:20:21.171Z,99849.23
2019-03-15T12:22:50.665Z,99844.05
2019-03-15T12:25:20.177Z,99847.20
2019-03-15T12:27:49.671Z,99849.06
2019-03-15T12:30:19.427Z,99849.75
2019-03-15T12:32:48.926Z,99846.33
2019-03-15T12:35:18.491Z,99837.54
2019-03-15T12:37:48.051Z,99832.00
2019-03-15T12:40:19.014Z,99828.86
2019-03-15T12:42:48.586Z,99848.53
2019-03-15T12:45:18.060Z,99850.83
2019-03-15T12:47:47.582Z,99845.30
2019-03-15T12:50:17.639Z,99837.12
2019-03-15T12:52:48.464Z,99843.53
2019-03-15T12:55:18.553Z,99846.69
2019-03-15T12:57:49.601Z,99852.34
2019-03-15T13:00:21.130Z,99847.91
2019-03-15T13:02:50.672Z,99856.44
2019-03-15T13:05:20.215Z,99853.75
2019-03-15T13:07:50.710Z,99865.81
2019-03-15T13:10:22.992Z,99859.23
2019-03-15T13:12:52.489Z,99851.83
2019-03-15T13:15:22.010Z,99847.97
2019-03-15T13:17:51.529Z,99850.15
2019-03-15T13:20:21.035Z,99848.75
2019-03-15T13:22:50.525Z,99842.98
2019-03-15T13:25:20.048Z,99850.47
2019-03-15T13:27:49.647Z,99848.58
2019-03-15T13:30:19.175Z,99847.80
2019-03-15T13:32:48.653Z,99855.02
2019-03-15T13:35:18.177Z,99860.12
2019-03-15T13:37:47.774Z,99855.08
2019-03-15T13:40:21.193Z,99853.89
2019-03-15T13:42:50.662Z,99847.08
2019-03-15T13:45:20.166Z,99842.25
2019-03-15T13:47:49.745Z,99845.22
2019-03-15T13:50:21.831Z,99846.64
2019-03-15T13:52:51.315Z,99849.16
2019-03-15T13:55:20.864Z,99852.34
2019-03-15T13:57:50.389Z,99854.82
2019-03-15T14:00:20.596Z,99852.34
2019-03-15T14:02:50.180Z,99855.11
2019-03-15T14:05:19.705Z,99849.03
2019-03-15T14:07:49.182Z,99848.94
2019-03-15T14:10:18.812Z,99842.79
2019-03-15T14:12:48.415Z,99838.38
2019-03-15T14:15:21.626Z,99831.35
2019-03-15T14:17:51.203Z,99843.95
2019-03-15T14:20:20.736Z,99842.03
2019-03-15T14:22:50.238Z,99843.61
2019-03-15T14:25:29.261Z,99833.58
2019-03-15T14:27:58.848Z,99842.20
2019-03-15T14:30:28.405Z,99838.10
2019-03-15T14:32:57.918Z,99830.08
2019-03-15T14:35:27.408Z,99840.08
2019-03-15T14:37:57.029Z,99842.30
2019-03-15T14:40:26.756Z,99843.25
2019-03-15T14:42:56.811Z,99845.48
2019-03-15T14:45:26.610Z,99836.19
2019-03-15T14:47:56.187Z,99832.87
2019-03-15T14:50:25.677Z,99832.84
2019-03-15T14:52:55.162Z,99826.88
2019-03-15T14:55:24.649Z,99823.33
2019-03-15T14:57:54.184Z,99832.07
2019-03-15T15:00:23.752Z,99829.96
2019-03-15T15:02:53.293Z,99825.91
2019-03-15T15:05:22.912Z,99838.27
2019-03-15T15:07:52.427Z,99842.48
2019-03-15T15:10:21.998Z,99843.50
2019-03-15T15:12:51.567Z,99841.28
2019-03-15T15:15:21.534Z,99850.08
2019-03-15T15:17:51.053Z,99842.75
2019-03-15T15:20:20.678Z,99839.73
2019-03-15T15:22:50.182Z,99837.63
2019-03-15T15:25:19.755Z,99823.77
2019-03-15T15:27:49.260Z,99817.94
2019-03-15T15:30:19.299Z,99831.06
2019-03-15T15:32:48.809Z,99837.59
2019-03-15T15:35:18.319Z,99837.64
2019-03-15T15:37:47.801Z,99841.95
2019-03-15T15:40:19.501Z,99831.58
2019-03-15T15:42:49.081Z,99845.03
2019-03-15T15:45:18.594Z,99835.50
2019-03-15T15:47:48.091Z,99827.30
2019-03-15T15:50:17.863Z,99835.42
2019-03-15T15:52:47.409Z,99844.23
2019-03-15T15:55:17.615Z,99815.60
2019-03-15T15:57:47.124Z,99825.15
2019-03-15T16:00:20.940Z,99819.92
2019-03-15T16:02:50.689Z,99813.41
2019-03-15T16:05:20.189Z,99809.52
2019-03-15T16:07:49.676Z,99818.68
2019-03-15T16:10:19.338Z,99818.22
2019-03-15T16:12:48.868Z,99812.54
2019-03-15T16:15:19.803Z,99806.89
2019-03-15T16:17:50.390Z,99811.22
2019-03-15T16:20:19.909Z,99820.77
2019-03-15T16:22:49.419Z,99811.17
2019-03-15T16:25:18.931Z,99814.65
2019-03-15T16:27:48.447Z,99809.87
2019-03-15T16:30:21.705Z,99800.78
2019-03-15T16:32:51.317Z,99796.88
2019-03-15T16:35:20.811Z,99792.00
2019-03-15T16:37:50.424Z,99806.77
2019-03-15T16:40:20.097Z,99791.08
2019-03-15T16:42:49.654Z,99806.31
2019-03-15T16:45:26.339Z,99793.21
2019-03-15T16:47:55.896Z,99804.98
2019-03-15T16:50:25.461Z,99821.16
2019-03-15T16:52:55.039Z,99791.70
2019-03-15T16:55:24.622Z,99802.55
2019-03-15T16:57:54.117Z,99805.22
2019-03-15T17:00:23.763Z,99800.89
2019-03-15T17:02:53.277Z,99806.52
2019-03-15T17:05:22.802Z,99815.23
2019-03-15T17:07:52.321Z,99810.92
2019-03-15T17:10:21.892Z,99824.36
2019-03-15T17:12:55.592Z,99849.58
2019-03-15T17:15:28.478Z,99830.10
2019-03-15T17:17:58.049Z,99839.27
2019-03-15T17:20:27.628Z,99843.13
2019-03-15T17:22:57.135Z,99847.04
2019-03-15T17:25:26.632Z,99846.63
2019-03-15T17:27:56.156Z,99850.09
2019-03-15T17:30:25.661Z,99854.87
2019-03-15T17:32:55.145Z,99860.11
2019-03-15T17:35:24.769Z,99861.80
2019-03-15T17:37:54.288Z,99864.41
2019-03-15T17:40:23.848Z,99874.41
2019-03-15T17:42:53.340Z,99871.78
2019-03-15T17:45:22.956Z,99872.23
2019-03-15T17:47:52.436Z,99893.94
2019-03-15T17:50:27.382Z,99873.53
2019-03-15T17:52:56.975Z,99883.10
2019-03-15T17:55:26.464Z,99880.51
2019-03-15T17:57:56.067Z,99876.58
2019-03-15T18:00:40.401Z,99894.80
2019-03-15T18:03:20.665Z,99890.88
2019-03-15T18:05:41.464Z,99888.72
2019-03-15T18:08:11.131Z,99892.66
2019-03-15T18:10:40.715Z,99891.81
2019-03-15T18:13:10.310Z,99888.75
2019-03-15T18:15:39.811Z,99905.67
2019-03-15T18:18:09.300Z,99911.27
2019-03-15T18:20:38.821Z,99905.15
2019-03-15T18:23:08.418Z,99918.69
2019-03-15T18:25:37.931Z,99922.13
2019-03-15T18:28:07.446Z,99908.66
2019-03-15T18:30:37.028Z,99934.70
2019-03-15T18:33:06.597Z,99927.36
2019-03-15T18:35:36.233Z,99932.97
2019-03-15T18:38:06.683Z,99979.80
2019-03-15T18:40:36.183Z,99988.52
2019-03-15T18:43:05.754Z,99976.80
2019-03-15T18:45:35.354Z,99984.20
2019-03-15T18:48:04.931Z,99980.29
2019-03-15T18:50:34.519Z,99975.52
2019-03-15T18:53:04.082Z,99989.36
2019-03-15T18:55:33.669Z,99984.59
2019-03-15T18:58:03.225Z,100002.78
2019-03-15T19:00:32.848Z,99992.41
2019-03-15T19:03:02.449Z,100010.61
2019-03-15T19:05:31.989Z,100017.54
2019-03-15T19:08:01.578Z,100015.34
2019-03-15T19:10:31.192Z,100019.70
2019-03-15T19:13:00.676Z,100026.63
2019-03-15T19:15:30.265Z,100019.27
2019-03-15T19:17:59.881Z,100020.15
2019-03-15T19:20:29.440Z,100023.19
2019-03-15T19:22:58.980Z,100024.91
2019-03-15T19:25:28.549Z,100026.23
2019-03-15T19:27:58.144Z,100032.71
2019-03-15T19:30:27.631Z,100038.34
2019-03-15T19:32:57.163Z,100054.41
2019-03-15T19:35:26.739Z,100058.27
2019-03-15T19:37:56.348Z,100061.31
2019-03-15T19:40:25.920Z,100068.69
2019-03-15T19:42:55.460Z,100073.89
2019-03-15T19:45:24.947Z,100076.92
2019-03-15T19:47:54.498Z,100080.34
2019-03-15T19:50:24.031Z,100076.86
2019-03-15T19:52:53.550Z,100081.23
2019-03-15T19:55:23.068Z,100079.91
2019-03-15T19:57:52.701Z,100094.23
2019-03-15T20:00:22.890Z,100095.96
2019-03-15T20:02:52.483Z,100101.16
2019-03-15T20:05:21.989Z,100113.70
2019-03-15T20:07:51.731Z,100109.80
2019-03-15T20:10:21.576Z,100121.52
2019-03-15T20:12:51.237Z,100128.45
2019-03-15T20:15:20.741Z,100132.36
2019-03-15T20:17:50.261Z,100147.05
2019-03-15T20:20:21.103Z,100146.66
2019-03-15T20:22:50.665Z,100149.25
2019-03-15T20:25:20.377Z,100151.00
2019-03-15T20:27:49.974Z,100159.16
2019-03-15T20:30:26.535Z,100163.44
2019-03-15T20:32:55.706Z,100165.25
2019-03-15T20:35:25.344Z,100157.80
2019-03-15T20:37:54.835Z,100159.88
2019-03-15T20:40:24.350Z,100172.02
2019-03-15T20:42:53.845Z,100176.25
2019-03-15T20:45:28.692Z,100167.81
2019-03-15T20:47:58.232Z,100165.32
2019-03-15T20:50:27.818Z,100177.81
2019-03-15T20:53:07.589Z,100178.86
2019-03-15T20:55:29.214Z,100192.52
2019-03-15T20:58:00.537Z,100181.97
2019-03-15T21:00:35.791Z,100174.59
2019-03-15T21:03:01.328Z,100168.97
2019-03-15T21:05:30.916Z,100168.05
2019-03-15T21:08:00.404Z,100176.41
2019-03-15T21:10:29.941Z,100171.41
2019-03-15T21:12:59.479Z,100176.86
2019-03-15T21:15:29.037Z,100179.92
2019-03-15T21:17:58.547Z,100183.09
2019-03-15T21:20:28.043Z,100183.05
2019-03-15T21:22:57.536Z,100176.53
2019-03-15T21:25:27.017Z,100184.28
2019-03-15T21:27:56.542Z,100188.86
2019-03-15T21:30:27.692Z,100196.71
2019-03-15T21:32:57.249Z,100209.41
2019-03-15T21:35:26.737Z,100220.55
2019-03-15T21:37:56.234Z,100214.13
2019-03-15T21:40:25.808Z,100213.08
2019-03-15T21:42:55.319Z,100210.92
2019-03-15T21:45:24.814Z,100211.31
2019-03-15T21:47:54.315Z,100213.52
2019-03-15T21:50:24.297Z,100221.20
2019-03-15T21:52:53.865Z,100226.38
2019-03-15T21:55:23.361Z,100234.41
2019-03-15T21:57:52.960Z,100230.23
2019-03-15T22:00:22.484Z,100228.84
2019-03-15T22:02:51.978Z,100238.39
2019-03-15T22:05:21.494Z,100243.98
2019-03-15T22:07:51.075Z,100255.45
2019-03-15T22:10:20.778Z,100246.87
2019-03-15T22:12:50.224Z,100255.69
2019-03-15T22:15:19.805Z,100257.05
2019-03-15T22:17:49.469Z,100262.12
2019-03-15T22:20:19.042Z,100258.48
2019-03-15T22:22:48.545Z,100262.35
2019-03-15T22:25:18.076Z,100263.06
2019-03-15T22:27:50.127Z,100270.61
2019-03-15T22:30:18.808Z,100279.58
2019-03-15T22:32:48.389Z,100287.61
2019-03-15T22:35:17.908Z,100291.33
2019-03-15T22:37:47.495Z,100284.37
2019-03-15T22:40:17.045Z,100279.08
2019-03-15T22:42:46.671Z,100280.27
2019-03-15T22:45:16.360Z,100282.31
2019-03-15T22:47:45.857Z,100291.01
2019-03-15T22:50:16.016Z,100292.30
2019-03-15T22:52:45.499Z,100286.20
2019-03-15T22:55:15.094Z,100283.19
2019-03-15T22:57:44.626Z,100283.18
2019-03-15T23:00:16.839Z,100287.08
2019-03-15T23:02:46.499Z,100282.70
2019-03-15T23:05:16.028Z,100281.88
2019-03-15T23:07:45.613Z,100294.56
2019-03-15T23:10:15.175Z,100294.45
2019-03-15T23:12:44.660Z,100299.64
2019-03-15T23:15:14.315Z,100301.80
2019-03-15T23:17:43.855Z,100302.59
2019-03-15T23:20:14.540Z,100304.83
2019-03-15T23:22:44.079Z,100296.23
2019-03-15T23:25:13.671Z,100314.53
2019-03-15T23:27:43.157Z,100320.62
2019-03-15T23:30:17.186Z,100322.88
2019-03-15T23:32:46.793Z,100321.92
2019-03-15T23:35:16.361Z,100312.36
2019-03-15T23:37:45.870Z,100305.78
2019-03-15T23:40:15.922Z,100313.09
2019-03-15T23:42:45.471Z,100304.16
2019-03-15T23:45:15.059Z,100306.06
2019-03-15T23:47:44.568Z,100314.70
2019-03-15T23:50:15.498Z,100319.55
2019-03-15T23:52:44.991Z,100327.33
2019-03-15T23:55:14.550Z,100329.01
2019-03-15T23:57:44.048Z,100326.86
